sensor_id;sensor_type;location;lat;lon;timestamp;temperature;humidity
15821;DHT22;8011;51.650;7.240;2022-08-19T03:00:53;18.30;99.90
15821;DHT22;8011;51.650;7.240;2022-08-19T03:03:19;18.30;99.90
15821;DHT22;8011;51.650;7.240;2022-08-19T03:05:48;18.30;99.90
15821;DHT22;8011;51.650;7.240;2022-08-19T03:08:15;18.30;99.90
15821;DHT22;8011;51.650;7.240;2022-08-19T03:10:42;18.20;99.90
15821;DHT22;8011;51.650;7.240;2022-08-19T03:13:18;18.20;99.90
15821;DHT22;8011;51.650;7.240;2022-08-19T03:15:46;18.20;99.90
15821;DHT22;8011;51.650;7.240;2022-08-19T03:18:13;18.20;99.90
15821;DHT22;8011;51.650;7.240;2022-08-19T03:20:45;18.20;99.90
15821;DHT22;8011;51.650;7.240;2022-08-19T03:23:11;18.20;99.90
15821;DHT22;8011;51.650;7.240;2022-08-19T03:25:45;18.20;99.90
15821;DHT22;8011;51.650;7.240;2022-08-19T03:28:26;18.20;99.90
15821;DHT22;8011;51.650;7.240;2022-08-19T03:30:59;18.10;99.90
15821;DHT22;8011;51.650;7.240;2022-08-19T03:33:26;18.10;99.90
15821;DHT22;8011;51.650;7.240;2022-08-19T03:36:05;18.10;99.90
15821;DHT22;8011;51.650;7.240;2022-08-19T03:38:47;18.10;99.90
15821;DHT22;8011;51.650;7.240;2022-08-19T03:41:24;18.10;99.90
15821;DHT22;8011;51.650;7.240;2022-08-19T03:43:50;18.10;99.90
15821;DHT22;8011;51.650;7.240;2022-08-19T03:46:19;18.00;99.90
15821;DHT22;8011;51.650;7.240;2022-08-19T03:52:14;18.00;99.90
15821;DHT22;8011;51.650;7.240;2022-08-19T03:54:40;18.00;99.90
15821;DHT22;8011;51.650;7.240;2022-08-19T03:57:06;17.90;99.90
15821;DHT22;8011;51.650;7.240;2022-08-19T03:59:33;17.90;99.90
15821;DHT22;8011;51.650;7.240;2022-08-19T04:02:01;17.90;99.90
15821;DHT22;8011;51.650;7.240;2022-08-19T04:04:27;17.90;99.90
15821;DHT22;8011;51.650;7.240;2022-08-19T04:06:54;17.90;99.90
15821;DHT22;8011;51.650;7.240;2022-08-19T04:09:20;17.90;99.90
15821;DHT22;8011;51.650;7.240;2022-08-19T04:11:48;17.90;99.90
15821;DHT22;8011;51.650;7.240;2022-08-19T04:14:18;17.90;99.90
15821;DHT22;8011;51.650;7.240;2022-08-19T04:16:45;17.90;99.90
15821;DHT22;8011;51.650;7.240;2022-08-19T04:19:12;17.90;99.90
15821;DHT22;8011;51.650;7.240;2022-08-19T04:21:38;17.90;99.90
15821;DHT22;8011;51.650;7.240;2022-08-19T04:24:06;17.80;99.90
15821;DHT22;8011;51.650;7.240;2022-08-19T04:26:36;17.80;99.90
15821;DHT22;8011;51.650;7.240;2022-08-19T04:29:06;17.80;99.90
15821;DHT22;8011;51.650;7.240;2022-08-19T04:31:33;17.80;99.90
15821;DHT22;8011;51.650;7.240;2022-08-19T04:34:03;17.80;99.90
15821;DHT22;8011;51.650;7.240;2022-08-19T04:36:33;17.80;99.90
15821;DHT22;8011;51.650;7.240;2022-08-19T04:39:06;17.80;99.90
15821;DHT22;8011;51.650;7.240;2022-08-19T04:41:32;17.80;99.90
15821;DHT22;8011;51.650;7.240;2022-08-19T04:44:16;17.80;99.90
15821;DHT22;8011;51.650;7.240;2022-08-19T04:46:46;17.80;99.90
15821;DHT22;8011;51.650;7.240;2022-08-19T04:49:13;17.80;99.90
15821;DHT22;8011;51.650;7.240;2022-08-19T04:51:41;17.70;99.90
15821;DHT22;8011;51.650;7.240;2022-08-19T04:54:08;17.80;99.90
15821;DHT22;8011;51.650;7.240;2022-08-19T04:56:34;17.80;99.90
15821;DHT22;8011;51.650;7.240;2022-08-19T04:59:00;17.80;99.90
15821;DHT22;8011;51.650;7.240;2022-08-19T05:01:31;17.80;99.90
15821;DHT22;8011;51.650;7.240;2022-08-19T05:03:59;17.80;99.90
15821;DHT22;8011;51.650;7.240;2022-08-19T05:06:26;17.70;99.90
15821;DHT22;8011;51.650;7.240;2022-08-19T05:08:52;17.70;99.90
15821;DHT22;8011;51.650;7.240;2022-08-19T05:11:24;17.70;99.90
15821;DHT22;8011;51.650;7.240;2022-08-19T05:13:51;17.70;99.90
15821;DHT22;8011;51.650;7.240;2022-08-19T05:16:19;17.70;99.90
15821;DHT22;8011;51.650;7.240;2022-08-19T05:18:47;17.80;99.90
15821;DHT22;8011;51.650;7.240;2022-08-19T05:21:32;17.80;99.90
15821;DHT22;8011;51.650;7.240;2022-08-19T05:24:17;17.80;99.90
15821;DHT22;8011;51.650;7.240;2022-08-19T05:26:45;17.80;99.90
15821;DHT22;8011;51.650;7.240;2022-08-19T05:29:13;17.80;99.90
15821;DHT22;8011;51.650;7.240;2022-08-19T05:31:39;17.90;99.90
15821;DHT22;8011;51.650;7.240;2022-08-19T05:34:06;17.90;99.90
15821;DHT22;8011;51.650;7.240;2022-08-19T05:36:40;17.90;99.90
15821;DHT22;8011;51.650;7.240;2022-08-19T05:39:08;17.90;99.90
15821;DHT22;8011;51.650;7.240;2022-08-19T05:41:35;18.00;99.90
15821;DHT22;8011;51.650;7.240;2022-08-19T05:44:02;18.00;99.90
15821;DHT22;8011;51.650;7.240;2022-08-19T05:46:31;18.10;99.90
15821;DHT22;8011;51.650;7.240;2022-08-19T05:48:56;18.10;99.90
15821;DHT22;8011;51.650;7.240;2022-08-19T05:51:24;18.20;99.90
15821;DHT22;8011;51.650;7.240;2022-08-19T05:53:50;18.20;99.90
15821;DHT22;8011;51.650;7.240;2022-08-19T05:56:16;18.30;99.90
15821;DHT22;8011;51.650;7.240;2022-08-19T05:58:44;18.40;99.90
15821;DHT22;8011;51.650;7.240;2022-08-19T06:01:13;18.40;99.90
15821;DHT22;8011;51.650;7.240;2022-08-19T06:03:39;18.50;99.90
15821;DHT22;8011;51.650;7.240;2022-08-19T06:06:06;18.50;99.90
15821;DHT22;8011;51.650;7.240;2022-08-19T06:08:35;18.60;99.90
15821;DHT22;8011;51.650;7.240;2022-08-19T06:11:20;18.60;99.90
15821;DHT22;8011;51.650;7.240;2022-08-19T06:13:48;18.70;99.90
15821;DHT22;8011;51.650;7.240;2022-08-19T06:16:17;18.70;99.90
15821;DHT22;8011;51.650;7.240;2022-08-19T06:18:53;18.80;99.90
15821;DHT22;8011;51.650;7.240;2022-08-19T06:21:20;18.90;99.90
15821;DHT22;8011;51.650;7.240;2022-08-19T06:23:47;19.00;99.90
15821;DHT22;8011;51.650;7.240;2022-08-19T06:26:14;19.10;99.90
15821;DHT22;8011;51.650;7.240;2022-08-19T06:28:40;19.10;99.90
15821;DHT22;8011;51.650;7.240;2022-08-19T06:31:17;19.20;99.90
15821;DHT22;8011;51.650;7.240;2022-08-19T06:33:44;19.20;99.90
15821;DHT22;8011;51.650;7.240;2022-08-19T06:36:25;19.30;99.90
15821;DHT22;8011;51.650;7.240;2022-08-19T06:38:55;19.30;99.90
15821;DHT22;8011;51.650;7.240;2022-08-19T06:41:23;19.30;99.90
15821;DHT22;8011;51.650;7.240;2022-08-19T06:43:49;19.40;99.90
15821;DHT22;8011;51.650;7.240;2022-08-19T06:46:16;19.40;99.90
15821;DHT22;8011;51.650;7.240;2022-08-19T06:48:44;19.50;99.90
15821;DHT22;8011;51.650;7.240;2022-08-19T06:51:09;19.60;99.90
15821;DHT22;8011;51.650;7.240;2022-08-19T06:53:35;19.70;99.90
15821;DHT22;8011;51.650;7.240;2022-08-19T06:56:01;19.70;99.90
15821;DHT22;8011;51.650;7.240;2022-08-19T06:58:29;19.80;99.90
15821;DHT22;8011;51.650;7.240;2022-08-19T07:01:02;19.90;99.90
15821;DHT22;8011;51.650;7.240;2022-08-19T07:03:33;19.90;99.90
15821;DHT22;8011;51.650;7.240;2022-08-19T07:06:05;20.00;99.90
15821;DHT22;8011;51.650;7.240;2022-08-19T07:08:32;20.10;99.90
15821;DHT22;8011;51.650;7.240;2022-08-19T07:10:57;20.10;99.90
15821;DHT22;8011;51.650;7.240;2022-08-19T07:13:23;20.10;99.90
15821;DHT22;8011;51.650;7.240;2022-08-19T07:15:49;20.20;99.90
15821;DHT22;8011;51.650;7.240;2022-08-19T07:18:19;20.20;99.90
15821;DHT22;8011;51.650;7.240;2022-08-19T07:20:46;20.30;99.90
15821;DHT22;8011;51.650;7.240;2022-08-19T07:23:12;20.30;99.90
15821;DHT22;8011;51.650;7.240;2022-08-19T07:25:39;20.40;99.90
15821;DHT22;8011;51.650;7.240;2022-08-19T07:28:05;20.40;99.90
15821;DHT22;8011;51.650;7.240;2022-08-19T07:30:32;20.50;99.90
15821;DHT22;8011;51.650;7.240;2022-08-19T07:33:01;20.60;99.90
15821;DHT22;8011;51.650;7.240;2022-08-19T07:35:26;20.60;99.90
15821;DHT22;8011;51.650;7.240;2022-08-19T07:37:53;20.60;99.90
15821;DHT22;8011;51.650;7.240;2022-08-19T07:40:19;20.70;99.90
15821;DHT22;8011;51.650;7.240;2022-08-19T07:42:45;20.70;99.90
15821;DHT22;8011;51.650;7.240;2022-08-19T07:45:11;20.80;99.90
15821;DHT22;8011;51.650;7.240;2022-08-19T07:47:37;20.90;99.90
15821;DHT22;8011;51.650;7.240;2022-08-19T07:50:04;20.90;99.90
15821;DHT22;8011;51.650;7.240;2022-08-19T07:52:31;20.90;99.90
15821;DHT22;8011;51.650;7.240;2022-08-19T07:54:56;21.00;99.90
15821;DHT22;8011;51.650;7.240;2022-08-19T07:57:22;21.00;99.90
15821;DHT22;8011;51.650;7.240;2022-08-19T07:59:48;21.10;99.90
15821;DHT22;8011;51.650;7.240;2022-08-19T08:02:13;21.10;99.90
15821;DHT22;8011;51.650;7.240;2022-08-19T08:04:39;21.20;99.90
15821;DHT22;8011;51.650;7.240;2022-08-19T08:07:23;21.20;99.90
15821;DHT22;8011;51.650;7.240;2022-08-19T08:10:07;21.30;99.90
15821;DHT22;8011;51.650;7.240;2022-08-19T08:12:37;21.30;99.90
15821;DHT22;8011;51.650;7.240;2022-08-19T08:15:09;21.40;99.90
15821;DHT22;8011;51.650;7.240;2022-08-19T08:17:35;21.50;99.90
15821;DHT22;8011;51.650;7.240;2022-08-19T08:20:06;21.60;99.90
15821;DHT22;8011;51.650;7.240;2022-08-19T08:22:32;21.70;99.90
15821;DHT22;8011;51.650;7.240;2022-08-19T08:25:19;21.70;99.90
15821;DHT22;8011;51.650;7.240;2022-08-19T08:27:46;21.90;99.90
15821;DHT22;8011;51.650;7.240;2022-08-19T08:30:21;22.00;99.90
15821;DHT22;8011;51.650;7.240;2022-08-19T08:32:48;22.20;99.90
15821;DHT22;8011;51.650;7.240;2022-08-19T08:35:21;22.30;99.90
15821;DHT22;8011;51.650;7.240;2022-08-19T08:37:49;22.40;99.90
15821;DHT22;8011;51.650;7.240;2022-08-19T08:45:28;22.70;99.90
15821;DHT22;8011;51.650;7.240;2022-08-19T08:47:57;22.70;99.90
15821;DHT22;8011;51.650;7.240;2022-08-19T08:50:35;22.80;99.90
15821;DHT22;8011;51.650;7.240;2022-08-19T08:53:05;22.90;99.90
15821;DHT22;8011;51.650;7.240;2022-08-19T08:55:34;23.00;99.90
15821;DHT22;8011;51.650;7.240;2022-08-19T08:58:13;23.00;99.90
15821;DHT22;8011;51.650;7.240;2022-08-19T09:00:45;23.10;99.90
15821;DHT22;8011;51.650;7.240;2022-08-19T09:03:20;23.20;99.90
15821;DHT22;8011;51.650;7.240;2022-08-19T09:06:00;23.30;99.90
15821;DHT22;8011;51.650;7.240;2022-08-19T09:11:08;23.60;99.90
15821;DHT22;8011;51.650;7.240;2022-08-19T09:14:06;23.80;99.90
15821;DHT22;8011;51.650;7.240;2022-08-19T09:16:34;24.00;99.90
15821;DHT22;8011;51.650;7.240;2022-08-19T09:19:04;24.10;99.90
15821;DHT22;8011;51.650;7.240;2022-08-19T09:21:30;24.20;99.90
15821;DHT22;8011;51.650;7.240;2022-08-19T09:23:56;24.10;99.90
15821;DHT22;8011;51.650;7.240;2022-08-19T09:26:24;24.10;99.90
15821;DHT22;8011;51.650;7.240;2022-08-19T09:28:52;24.10;99.90
15821;DHT22;8011;51.650;7.240;2022-08-19T09:31:21;24.10;99.90
15821;DHT22;8011;51.650;7.240;2022-08-19T09:33:47;24.10;99.90
15821;DHT22;8011;51.650;7.240;2022-08-19T09:36:15;24.10;99.90
15821;DHT22;8011;51.650;7.240;2022-08-19T09:38:42;24.00;99.90
15821;DHT22;8011;51.650;7.240;2022-08-19T09:41:14;24.00;99.90
15821;DHT22;8011;51.650;7.240;2022-08-19T09:43:42;24.00;99.90
15821;DHT22;8011;51.650;7.240;2022-08-19T09:46:09;24.00;99.90
15821;DHT22;8011;51.650;7.240;2022-08-19T09:48:39;23.90;99.90
15821;DHT22;8011;51.650;7.240;2022-08-19T09:51:11;24.00;99.90
15821;DHT22;8011;51.650;7.240;2022-08-19T09:53:38;24.10;99.90
15821;DHT22;8011;51.650;7.240;2022-08-19T09:56:05;24.00;99.90
15821;DHT22;8011;51.650;7.240;2022-08-19T09:58:31;24.00;99.90
15821;DHT22;8011;51.650;7.240;2022-08-19T10:00:58;24.00;99.90
15821;DHT22;8011;51.650;7.240;2022-08-19T10:03:25;24.10;99.90
15821;DHT22;8011;51.650;7.240;2022-08-19T10:05:53;24.20;99.90
15821;DHT22;8011;51.650;7.240;2022-08-19T10:08:25;24.30;99.90
15821;DHT22;8011;51.650;7.240;2022-08-19T10:10:55;24.40;99.90
15821;DHT22;8011;51.650;7.240;2022-08-19T10:13:23;24.50;99.90
15821;DHT22;8011;51.650;7.240;2022-08-19T10:15:55;24.60;99.90
15821;DHT22;8011;51.650;7.240;2022-08-19T10:18:23;24.70;99.90
15821;DHT22;8011;51.650;7.240;2022-08-19T10:20:51;24.80;99.90
15821;DHT22;8011;51.650;7.240;2022-08-19T10:23:18;24.80;99.90
15821;DHT22;8011;51.650;7.240;2022-08-19T10:25:45;24.80;99.90
15821;DHT22;8011;51.650;7.240;2022-08-19T10:28:11;24.70;99.90
15821;DHT22;8011;51.650;7.240;2022-08-19T10:30:40;24.80;99.90
15821;DHT22;8011;51.650;7.240;2022-08-19T10:33:06;24.80;99.90
15821;DHT22;8011;51.650;7.240;2022-08-19T10:35:32;24.90;99.90
15821;DHT22;8011;51.650;7.240;2022-08-19T10:37:58;25.00;99.90
15821;DHT22;8011;51.650;7.240;2022-08-19T10:40:26;24.90;99.90
15821;DHT22;8011;51.650;7.240;2022-08-19T10:42:52;24.90;99.90
15821;DHT22;8011;51.650;7.240;2022-08-19T10:45:18;24.80;99.90
15821;DHT22;8011;51.650;7.240;2022-08-19T10:47:43;24.80;99.90
15821;DHT22;8011;51.650;7.240;2022-08-19T10:50:09;24.90;99.90
15821;DHT22;8011;51.650;7.240;2022-08-19T10:52:54;24.90;99.90
15821;DHT22;8011;51.650;7.240;2022-08-19T10:55:22;25.00;99.90
15821;DHT22;8011;51.650;7.240;2022-08-19T10:58:11;25.10;99.90
15821;DHT22;8011;51.650;7.240;2022-08-19T11:00:38;25.10;99.90
15821;DHT22;8011;51.650;7.240;2022-08-19T11:03:06;25.10;99.90
15821;DHT22;8011;51.650;7.240;2022-08-19T11:05:31;25.00;99.90
15821;DHT22;8011;51.650;7.240;2022-08-19T11:07:57;25.00;99.90
15821;DHT22;8011;51.650;7.240;2022-08-19T11:10:23;25.10;99.90
15821;DHT22;8011;51.650;7.240;2022-08-19T11:12:49;25.20;99.90
15821;DHT22;8011;51.650;7.240;2022-08-19T11:15:19;25.20;99.90
15821;DHT22;8011;51.650;7.240;2022-08-19T11:17:45;25.30;99.90
15821;DHT22;8011;51.650;7.240;2022-08-19T11:20:29;25.30;99.90
15821;DHT22;8011;51.650;7.240;2022-08-19T11:22:55;25.20;99.90
15821;DHT22;8011;51.650;7.240;2022-08-19T11:25:21;25.30;99.90
15821;DHT22;8011;51.650;7.240;2022-08-19T11:27:47;25.40;99.90
15821;DHT22;8011;51.650;7.240;2022-08-19T11:30:16;25.40;99.90
15821;DHT22;8011;51.650;7.240;2022-08-19T11:32:42;25.30;99.90
15821;DHT22;8011;51.650;7.240;2022-08-19T11:35:08;25.50;99.90
15821;DHT22;8011;51.650;7.240;2022-08-19T11:37:33;25.40;99.90
15821;DHT22;8011;51.650;7.240;2022-08-19T11:40:04;25.40;99.90
15821;DHT22;8011;51.650;7.240;2022-08-19T11:42:30;25.40;99.90
15821;DHT22;8011;51.650;7.240;2022-08-19T11:45:14;25.40;99.90
15821;DHT22;8011;51.650;7.240;2022-08-19T11:47:39;25.50;99.90
15821;DHT22;8011;51.650;7.240;2022-08-19T11:50:05;25.50;99.90
15821;DHT22;8011;51.650;7.240;2022-08-19T11:52:31;25.60;99.90
15821;DHT22;8011;51.650;7.240;2022-08-19T11:54:56;25.60;99.90
15821;DHT22;8011;51.650;7.240;2022-08-19T11:57:22;25.70;99.90
15821;DHT22;8011;51.650;7.240;2022-08-19T11:59:52;25.60;99.90
15821;DHT22;8011;51.650;7.240;2022-08-19T12:02:18;25.50;99.90
15821;DHT22;8011;51.650;7.240;2022-08-19T12:04:44;25.50;99.90
15821;DHT22;8011;51.650;7.240;2022-08-19T12:07:10;25.60;99.90
15821;DHT22;8011;51.650;7.240;2022-08-19T12:09:36;25.60;99.90
15821;DHT22;8011;51.650;7.240;2022-08-19T12:12:02;25.60;99.90
15821;DHT22;8011;51.650;7.240;2022-08-19T12:14:28;25.60;99.90
15821;DHT22;8011;51.650;7.240;2022-08-19T12:16:56;25.70;99.90
15821;DHT22;8011;51.650;7.240;2022-08-19T12:19:21;25.70;99.90
15821;DHT22;8011;51.650;7.240;2022-08-19T12:21:47;25.80;99.90
15821;DHT22;8011;51.650;7.240;2022-08-19T12:24:13;25.90;99.90
15821;DHT22;8011;51.650;7.240;2022-08-19T12:26:39;26.00;99.90
15821;DHT22;8011;51.650;7.240;2022-08-19T12:29:05;26.10;99.90
15821;DHT22;8011;51.650;7.240;2022-08-19T12:31:31;26.20;99.90
15821;DHT22;8011;51.650;7.240;2022-08-19T12:33:57;26.10;99.90
15821;DHT22;8011;51.650;7.240;2022-08-19T12:36:23;26.20;99.90
15821;DHT22;8011;51.650;7.240;2022-08-19T12:38:50;26.20;99.90
15821;DHT22;8011;51.650;7.240;2022-08-19T12:41:17;26.20;99.90
15821;DHT22;8011;51.650;7.240;2022-08-19T12:43:43;26.10;99.90
15821;DHT22;8011;51.650;7.240;2022-08-19T12:46:10;26.10;99.90
15821;DHT22;8011;51.650;7.240;2022-08-19T12:48:37;26.20;99.90
15821;DHT22;8011;51.650;7.240;2022-08-19T12:51:10;26.30;99.90
15821;DHT22;8011;51.650;7.240;2022-08-19T12:53:36;26.40;99.90
15821;DHT22;8011;51.650;7.240;2022-08-19T12:56:03;26.40;99.90
15821;DHT22;8011;51.650;7.240;2022-08-19T12:58:29;26.50;99.90
15821;DHT22;8011;51.650;7.240;2022-08-19T13:00:55;26.50;99.90
15821;DHT22;8011;51.650;7.240;2022-08-19T13:03:20;26.50;99.90
15821;DHT22;8011;51.650;7.240;2022-08-19T13:05:50;26.30;99.90
15821;DHT22;8011;51.650;7.240;2022-08-19T13:08:16;26.20;99.90
15821;DHT22;8011;51.650;7.240;2022-08-19T13:10:42;26.10;99.90
15821;DHT22;8011;51.650;7.240;2022-08-19T13:13:08;26.20;99.90
15821;DHT22;8011;51.650;7.240;2022-08-19T13:15:41;26.30;99.90
15821;DHT22;8011;51.650;7.240;2022-08-19T13:18:08;26.30;99.90
15821;DHT22;8011;51.650;7.240;2022-08-19T13:20:37;26.30;99.90
15821;DHT22;8011;51.650;7.240;2022-08-19T13:23:03;26.20;99.90
15821;DHT22;8011;51.650;7.240;2022-08-19T13:25:29;26.10;99.90
15821;DHT22;8011;51.650;7.240;2022-08-19T13:27:55;26.00;99.90
15821;DHT22;8011;51.650;7.240;2022-08-19T13:30:21;26.00;99.90
15821;DHT22;8011;51.650;7.240;2022-08-19T13:33:06;26.10;99.90
15821;DHT22;8011;51.650;7.240;2022-08-19T13:35:50;26.10;99.90
15821;DHT22;8011;51.650;7.240;2022-08-19T13:38:19;26.10;99.90
15821;DHT22;8011;51.650;7.240;2022-08-19T13:40:46;26.20;99.90
15821;DHT22;8011;51.650;7.240;2022-08-19T13:43:13;26.20;99.90
15821;DHT22;8011;51.650;7.240;2022-08-19T13:45:39;26.20;99.90
15821;DHT22;8011;51.650;7.240;2022-08-19T13:48:07;26.10;99.90
15821;DHT22;8011;51.650;7.240;2022-08-19T13:50:37;26.10;99.90
15821;DHT22;8011;51.650;7.240;2022-08-19T13:53:04;25.90;99.90
15821;DHT22;8011;51.650;7.240;2022-08-19T13:55:30;25.90;99.90
15821;DHT22;8011;51.650;7.240;2022-08-19T13:57:58;25.90;99.90
15821;DHT22;8011;51.650;7.240;2022-08-19T14:00:27;25.90;99.90
15821;DHT22;8011;51.650;7.240;2022-08-19T14:02:56;26.00;99.90
15821;DHT22;8011;51.650;7.240;2022-08-19T14:05:22;26.00;99.90
15821;DHT22;8011;51.650;7.240;2022-08-19T14:07:48;26.00;99.90
15821;DHT22;8011;51.650;7.240;2022-08-19T14:10:14;26.00;99.90
15821;DHT22;8011;51.650;7.240;2022-08-19T14:12:40;26.10;99.90
15821;DHT22;8011;51.650;7.240;2022-08-19T14:15:09;26.20;99.90
15821;DHT22;8011;51.650;7.240;2022-08-19T14:17:38;26.20;99.90
15821;DHT22;8011;51.650;7.240;2022-08-19T14:20:05;26.20;99.90
15821;DHT22;8011;51.650;7.240;2022-08-19T14:22:35;26.20;99.90
15821;DHT22;8011;51.650;7.240;2022-08-19T14:25:02;26.30;99.90
15821;DHT22;8011;51.650;7.240;2022-08-19T14:27:28;26.30;99.90
15821;DHT22;8011;51.650;7.240;2022-08-19T14:29:53;26.30;99.90
15821;DHT22;8011;51.650;7.240;2022-08-19T14:32:20;26.30;99.90
15821;DHT22;8011;51.650;7.240;2022-08-19T14:34:47;26.40;99.90
15821;DHT22;8011;51.650;7.240;2022-08-19T14:37:13;26.50;99.90
15821;DHT22;8011;51.650;7.240;2022-08-19T14:39:40;26.50;99.90
15821;DHT22;8011;51.650;7.240;2022-08-19T14:42:10;26.60;99.90
15821;DHT22;8011;51.650;7.240;2022-08-19T14:44:36;26.70;99.90
15821;DHT22;8011;51.650;7.240;2022-08-19T14:47:01;26.70;99.90
15821;DHT22;8011;51.650;7.240;2022-08-19T14:49:27;26.70;99.90
15821;DHT22;8011;51.650;7.240;2022-08-19T14:51:53;26.50;99.90
15821;DHT22;8011;51.650;7.240;2022-08-19T14:54:19;26.30;99.90
15821;DHT22;8011;51.650;7.240;2022-08-19T14:56:44;26.20;99.90
15821;DHT22;8011;51.650;7.240;2022-08-19T14:59:10;26.20;99.90
15821;DHT22;8011;51.650;7.240;2022-08-19T15:01:36;26.30;99.90
15821;DHT22;8011;51.650;7.240;2022-08-19T15:04:02;26.30;99.90
15821;DHT22;8011;51.650;7.240;2022-08-19T15:06:28;26.20;99.90
15821;DHT22;8011;51.650;7.240;2022-08-19T15:08:54;26.20;99.90
15821;DHT22;8011;51.650;7.240;2022-08-19T15:11:23;26.20;99.90
15821;DHT22;8011;51.650;7.240;2022-08-19T15:13:49;26.20;99.90
15821;DHT22;8011;51.650;7.240;2022-08-19T15:16:16;26.30;99.90
15821;DHT22;8011;51.650;7.240;2022-08-19T15:18:42;26.30;99.90
15821;DHT22;8011;51.650;7.240;2022-08-19T15:21:13;26.40;99.90
15821;DHT22;8011;51.650;7.240;2022-08-19T15:23:41;26.40;99.90
15821;DHT22;8011;51.650;7.240;2022-08-19T15:26:07;26.40;99.90
15821;DHT22;8011;51.650;7.240;2022-08-19T15:28:34;26.50;99.90
15821;DHT22;8011;51.650;7.240;2022-08-19T15:31:00;26.40;99.90
15821;DHT22;8011;51.650;7.240;2022-08-19T15:33:26;26.30;99.90
15821;DHT22;8011;51.650;7.240;2022-08-19T15:35:52;26.20;99.90
15821;DHT22;8011;51.650;7.240;2022-08-19T15:38:19;26.20;99.90
15821;DHT22;8011;51.650;7.240;2022-08-19T15:40:48;26.20;99.90
15821;DHT22;8011;51.650;7.240;2022-08-19T15:43:16;26.20;99.90
15821;DHT22;8011;51.650;7.240;2022-08-19T15:45:44;26.20;99.90
15821;DHT22;8011;51.650;7.240;2022-08-19T15:48:09;26.20;99.90
15821;DHT22;8011;51.650;7.240;2022-08-19T15:50:35;26.20;99.90
15821;DHT22;8011;51.650;7.240;2022-08-19T15:53:08;26.20;99.90
15821;DHT22;8011;51.650;7.240;2022-08-19T15:55:37;26.30;99.90
15821;DHT22;8011;51.650;7.240;2022-08-19T15:58:12;26.20;99.90
15821;DHT22;8011;51.650;7.240;2022-08-19T16:00:59;26.20;99.90
15821;DHT22;8011;51.650;7.240;2022-08-19T16:03:43;26.40;99.90
15821;DHT22;8011;51.650;7.240;2022-08-19T16:06:28;26.40;99.90
15821;DHT22;8011;51.650;7.240;2022-08-19T16:08:56;26.50;99.90
15821;DHT22;8011;51.650;7.240;2022-08-19T16:11:23;26.60;99.90
15821;DHT22;8011;51.650;7.240;2022-08-19T16:13:51;26.60;99.90
15821;DHT22;8011;51.650;7.240;2022-08-19T16:16:24;26.60;99.90
15821;DHT22;8011;51.650;7.240;2022-08-19T16:18:53;26.70;99.90
15821;DHT22;8011;51.650;7.240;2022-08-19T16:21:20;26.70;99.90
15821;DHT22;8011;51.650;7.240;2022-08-19T16:23:48;26.80;99.90
15821;DHT22;8011;51.650;7.240;2022-08-19T16:26:16;26.80;99.90
15821;DHT22;8011;51.650;7.240;2022-08-19T16:28:44;26.80;99.90
15821;DHT22;8011;51.650;7.240;2022-08-19T16:31:12;26.70;99.90
15821;DHT22;8011;51.650;7.240;2022-08-19T16:33:38;26.80;99.90
15821;DHT22;8011;51.650;7.240;2022-08-19T16:36:04;26.70;99.90
15821;DHT22;8011;51.650;7.240;2022-08-19T16:38:31;26.70;99.90
15821;DHT22;8011;51.650;7.240;2022-08-19T16:40:58;26.70;99.90
15821;DHT22;8011;51.650;7.240;2022-08-19T16:43:27;26.70;99.90
15821;DHT22;8011;51.650;7.240;2022-08-19T16:45:54;26.70;99.90
15821;DHT22;8011;51.650;7.240;2022-08-19T16:48:26;26.70;99.90
15821;DHT22;8011;51.650;7.240;2022-08-19T16:50:52;26.60;99.90
15821;DHT22;8011;51.650;7.240;2022-08-19T16:53:20;26.60;99.90
15821;DHT22;8011;51.650;7.240;2022-08-19T16:55:48;26.60;99.90
15821;DHT22;8011;51.650;7.240;2022-08-19T16:58:18;26.60;99.90
15821;DHT22;8011;51.650;7.240;2022-08-19T17:00:45;26.70;99.90
15821;DHT22;8011;51.650;7.240;2022-08-19T17:03:11;26.60;99.90
15821;DHT22;8011;51.650;7.240;2022-08-19T17:05:48;26.60;99.90
15821;DHT22;8011;51.650;7.240;2022-08-19T17:08:14;26.60;99.90
15821;DHT22;8011;51.650;7.240;2022-08-19T17:10:44;26.60;99.90
15821;DHT22;8011;51.650;7.240;2022-08-19T17:13:11;26.60;99.90
15821;DHT22;8011;51.650;7.240;2022-08-19T17:15:39;26.60;99.90
15821;DHT22;8011;51.650;7.240;2022-08-19T17:18:07;26.50;99.90
15821;DHT22;8011;51.650;7.240;2022-08-19T17:20:34;26.50;99.90
15821;DHT22;8011;51.650;7.240;2022-08-19T17:23:00;26.40;99.90
15821;DHT22;8011;51.650;7.240;2022-08-19T17:25:28;26.40;99.90
15821;DHT22;8011;51.650;7.240;2022-08-19T17:27:56;26.40;99.90
15821;DHT22;8011;51.650;7.240;2022-08-19T17:30:23;26.30;99.90
15821;DHT22;8011;51.650;7.240;2022-08-19T17:32:49;26.30;99.90
15821;DHT22;8011;51.650;7.240;2022-08-19T17:35:16;26.30;99.90
15821;DHT22;8011;51.650;7.240;2022-08-19T17:37:49;26.30;99.90
15821;DHT22;8011;51.650;7.240;2022-08-19T17:40:16;26.30;99.90
15821;DHT22;8011;51.650;7.240;2022-08-19T17:42:43;26.30;99.90
15821;DHT22;8011;51.650;7.240;2022-08-19T17:45:10;26.30;99.90
15821;DHT22;8011;51.650;7.240;2022-08-19T17:47:37;26.30;99.90
15821;DHT22;8011;51.650;7.240;2022-08-19T17:50:08;26.20;99.90
15821;DHT22;8011;51.650;7.240;2022-08-19T17:52:36;26.30;99.90
15821;DHT22;8011;51.650;7.240;2022-08-19T17:55:02;26.20;99.90
15821;DHT22;8011;51.650;7.240;2022-08-19T17:57:28;26.20;99.90
15821;DHT22;8011;51.650;7.240;2022-08-19T17:59:54;26.10;99.90
15821;DHT22;8011;51.650;7.240;2022-08-19T18:02:20;26.00;99.90
15821;DHT22;8011;51.650;7.240;2022-08-19T18:04:45;26.00;99.90
15821;DHT22;8011;51.650;7.240;2022-08-19T18:07:11;26.00;99.90
15821;DHT22;8011;51.650;7.240;2022-08-19T18:09:39;25.90;99.90
15821;DHT22;8011;51.650;7.240;2022-08-19T18:12:07;25.80;99.90
15821;DHT22;8011;51.650;7.240;2022-08-19T18:14:35;25.90;99.90
15821;DHT22;8011;51.650;7.240;2022-08-19T18:17:07;25.80;99.90
15821;DHT22;8011;51.650;7.240;2022-08-19T18:19:35;25.80;99.90
15821;DHT22;8011;51.650;7.240;2022-08-19T18:22:02;25.70;99.90
15821;DHT22;8011;51.650;7.240;2022-08-19T18:24:28;25.70;99.90
15821;DHT22;8011;51.650;7.240;2022-08-19T18:26:53;25.70;99.90
15821;DHT22;8011;51.650;7.240;2022-08-19T18:29:19;25.60;99.90
15821;DHT22;8011;51.650;7.240;2022-08-19T18:31:45;25.60;99.90
15821;DHT22;8011;51.650;7.240;2022-08-19T18:34:13;25.60;99.90
15821;DHT22;8011;51.650;7.240;2022-08-19T18:36:39;25.60;99.90
15821;DHT22;8011;51.650;7.240;2022-08-19T18:39:05;25.50;99.90
15821;DHT22;8011;51.650;7.240;2022-08-19T18:41:50;25.40;99.90
15821;DHT22;8011;51.650;7.240;2022-08-19T18:44:35;25.20;99.90
15821;DHT22;8011;51.650;7.240;2022-08-19T18:47:19;25.10;99.90
15821;DHT22;8011;51.650;7.240;2022-08-19T18:50:23;25.00;99.90
15821;DHT22;8011;51.650;7.240;2022-08-19T18:52:49;24.90;99.90
15821;DHT22;8011;51.650;7.240;2022-08-19T18:55:15;24.80;99.90
15821;DHT22;8011;51.650;7.240;2022-08-19T18:57:42;24.80;99.90
15821;DHT22;8011;51.650;7.240;2022-08-19T19:00:09;24.70;99.90
15821;DHT22;8011;51.650;7.240;2022-08-19T19:02:36;24.60;99.90
15821;DHT22;8011;51.650;7.240;2022-08-19T19:05:06;24.50;99.90